51M weather

Oscoda County Airport
Mio, Michigan, United States

Public forecast

Using degrees Fahrenheit for public forecast. Weather courtesy of forecast.io.

Closest aviation weather report (METAR) to Oscoda County Airport

Closest report is Grayling Army Air Field, 25.8 nm (47.7 km) W. Retrieved 2019/10/14 23:58 UTC (35 minutes ago):

KGOV 142358Z AUTO 00000KT 10SM CLR 04/00 A3001 RMK AO2 SLP179 T00371003 10092 20037

Closest aviation forecast (TAF) to Oscoda County Airport

Closest forecast is Alpena County Regional Airport, 33.9 nm (62.7 km) NE. Retrieved 2019-10-15 00:42 UTC (0 seconds ago):

TAF KAPN 142340Z 1500/1524 25005KT P6SM FEW200 FM151400 19006KT P6SM BKN150 FM151700 16007KT P6SM VCSH BKN120 FM152200 14011G19KT 6SM -SHRA BR OVC050